Carver, MA

11:32 AM EDT on September 02, 2014 (GMT -0400)
Carver, Mass. | Change Station
CLOSE
Current Station
Personal Weather Station
Location: Carver, MA
Elevation: 105 ft
Nearby Weather Stations

Elev 105 ft 41.88 °N, 70.79 °W | Updated 48 seconds ago

Clear
Clear
91.6 °F
Feels Like 104 °F
N
0.0
Wind Variable Wind from WSW

Today
High -- | Low -- °F
--% Chance of Precip.
Yesterday
High -- | Low -- °F
Precip. -- in
6:09 AM 7:14 PM
First Quarter, 52% visible
Pressure 29.92 in
Visibility 10.0 miles
Clouds Clear
Heat Index 104 °F
Dew Point 76 °F
Humidity 61%
Rainfall 0.00 in
Snow Depth Not available.
UV 7 out of 12
Pollen 6.70 out of 12
Ozone Good
PM2.5 Moderate
Flu Activity Not available.
METAR KPYM 021452Z AUTO 21008KT 10SM CLR 29/22 A2993 RMK AO2 SLP132 T02890222 58002

More Conditions Fewer Conditions

Pressure 29.92 in
Visibility 10.0 miles
Clouds Clear
Heat Index 104 °F
Dew Point 76 °F
Humidity 61%
Rainfall 0.00 in
Snow Depth Not available.
UV 7 out of 12
Pollen 6.70 out of 12
Ozone Good
PM2.5 Moderate
Flu Activity Not available.
METAR KPYM 021452Z AUTO 21008KT 10SM CLR 29/22 A2993 RMK AO2 SLP132 T02890222 58002

More Conditions Fewer Conditions

10-Day Weather Forecast

Almanac

Astronomy

Sep. 02, 2014 Rise Set
Actual Time 6:09 AM EDT 7:14 PM EDT
Civil Twilight 5:41 AM EDT 7:43 PM EDT
Nautical Twilight 5:07 AM EDT 8:17 PM EDT
Astronomical Twilight 4:31 AM EDT 8:53 PM EDT
Moon 1:57 PM EDT 11:59 PM EDT
Length of Visible Light 14h 02m
Length of Day
13h 05m
Tomorrow will be 2m 43s shorter.
First Quarter, 52% of the Moon is Illuminated
Today
First Quarter
Sep 8
Full
Sep 15
Last Quarter
Sep 24
New
Oct 1
First Quarter

Today's Extremes

State Highs State Lows

Community

WunderPhotos

Upload Photos

1,749,700 photos uploaded!

Nearby

Air Quality

  Air Quality AQ Index Pollutant
Yesterday Moderate
PM2.5
Yesterday Good
OZONE
Current Moderate
PM2.5
Current Good
OZONE
Tuesday Good
PM2.5
Tuesday Good
OZONE

Snow Depth

Station Depth Elevation
No new snow has been reported.

Earthquake Activity

City Distance Mag. Time & Date
No recent earthquake activity has been reported nearby.
Minimum magnitude displayed is 2.5.

Coastal Water Temperatures

Place Temperature
Boston, MA 68.0 °F
Fall River, MA 75.0 °F

Nearby Weather Stations